Terminal Aerodrome Forecast
Issued by NWS

Home | Current Version | Previous Version | Text Only | Print | Product List | Glossary On
Versions: 1 2 3 4 5 6 7 8 9 10 11 12
000
FTUS45 KTFX 180500
TAFLWT
TAF
KLWT 180520Z 1806/1906 16005KT P6SM BKN150
     FM182100 25010KT P6SM VCTS SCT070CB BKN120
     FM190300 24007KT P6SM BKN150=

USA.gov is the U.S. government's official web portal to all federal, state and local government web resources and services.